Time;durP1;ratioP1;P1;durP2;ratioP2;P2;SDS_P1;SDS_P2;PMS_P1;PMS_P2;Temp;Humidity;BMP_temperature;BMP_pressure;BME280_temperature;BME280_humidity;BME280_pressure;Samples;Min_cycle;Max_cycle;Signal;HPM_P1;HPM_P2
2023/03/29 00:01:53;;;;;;;2.40;0.95;;;;;;;;;;5037708;28;20032;-74
2023/03/29 00:04:19;;;;;;;1.55;0.57;;;;;;;;;;5041785;28;20025;-74
2023/03/29 00:06:46;;;;;;;1.00;0.60;;;;;;;;;;5033956;28;20465;-75
2023/03/29 00:09:14;;;;;;;1.30;0.70;;;;;;;;;;5040545;28;20051;-75
2023/03/29 00:11:41;;;;;;;2.05;0.65;;;;;;;;;;5039277;28;20074;-75
2023/03/29 00:14:07;;;;;;;1.90;0.50;;;;;;;;;;5037654;28;20044;-74
2023/03/29 00:16:33;;;;;;;4.38;0.70;;;;;;;;;;5040333;28;20040;-75
2023/03/29 00:18:59;;;;;;;0.70;0.60;;;;;;;;;;5042091;28;20040;-74
2023/03/29 00:21:25;;;;;;;3.97;0.70;;;;;;;;;;5035624;28;20060;-74
2023/03/29 00:23:51;;;;;;;2.92;0.65;;;;;;;;;;5039151;28;20243;-74
2023/03/29 00:26:18;;;;;;;2.22;0.82;;;;;;;;;;5046093;28;20499;-75
2023/03/29 00:28:44;;;;;;;1.33;0.80;;;;;;;;;;5041958;28;20493;-75
2023/03/29 00:31:14;;;;;;;3.65;0.82;;;;;;;;;;5037808;28;20090;-74
2023/03/29 00:33:41;;;;;;;1.95;0.77;;;;;;;;;;5039226;28;20040;-74
2023/03/29 00:36:07;;;;;;;0.88;0.50;;;;;;;;;;5039186;28;20033;-75
2023/03/29 00:38:34;;;;;;;2.15;0.90;;;;;;;;;;5023762;28;20082;-74
2023/03/29 00:41:00;;;;;;;1.38;0.70;;;;;;;;;;5040104;28;20048;-74
2023/03/29 00:43:27;;;;;;;1.17;0.50;;;;;;;;;;5041228;28;20028;-75
2023/03/29 00:45:53;;;;;;;1.15;0.52;;;;;;;;;;5044057;28;20055;-75
2023/03/29 00:48:21;;;;;;;1.52;0.60;;;;;;;;;;5041708;28;20025;-74
2023/03/29 00:50:47;;;;;;;1.08;0.68;;;;;;;;;;5038818;28;20025;-75
2023/03/29 00:53:22;;;;;;;2.22;0.70;;;;;;;;;;5043181;28;20048;-75
2023/03/29 00:56:08;;;;;;;3.35;0.60;;;;;;;;;;5039465;28;20294;-75
2023/03/29 00:58:39;;;;;;;0.70;0.55;;;;;;;;;;5037090;28;20029;-74
2023/03/29 01:01:12;;;;;;;1.48;0.60;;;;;;;;;;5043366;28;20604;-74
2023/03/29 01:03:45;;;;;;;1.52;0.73;;;;;;;;;;5041737;28;20432;-74
2023/03/29 01:06:12;;;;;;;1.88;0.70;;;;;;;;;;5039145;28;20080;-75
2023/03/29 01:08:44;;;;;;;1.00;0.70;;;;;;;;;;5043073;28;20131;-74
2023/03/29 01:11:10;;;;;;;;;;;;;;;;;;5042498;28;20041;-75
2023/03/29 01:13:48;;;;;;;2.17;0.50;;;;;;;;;;5044392;28;19909;-74
2023/03/29 01:16:17;;;;;;;1.17;0.50;;;;;;;;;;5042524;28;20140;-74
2023/03/29 01:18:45;;;;;;;1.40;0.68;;;;;;;;;;5039449;28;20035;-73
2023/03/29 01:21:14;;;;;;;1.55;0.68;;;;;;;;;;5039189;28;20087;-74
2023/03/29 01:23:47;;;;;;;1.08;0.70;;;;;;;;;;5039939;28;20025;-74
2023/03/29 01:26:18;;;;;;;0.82;0.50;;;;;;;;;;5039905;28;20033;-74
2023/03/29 01:28:45;;;;;;;;;;;;;;;;;;5033372;28;20036;-73
2023/03/29 01:31:15;;;;;;;2.97;0.77;;;;;;;;;;5037642;28;19970;-73
2023/03/29 01:33:44;;;;;;;1.17;0.60;;;;;;;;;;5041632;28;20041;-74
2023/03/29 01:36:18;;;;;;;4.75;1.27;;;;;;;;;;5034586;28;20091;-74
2023/03/29 01:38:48;;;;;;;1.20;0.60;;;;;;;;;;5036715;28;20025;-74
2023/03/29 01:41:14;;;;;;;0.60;0.45;;;;;;;;;;5041259;28;20044;-74
2023/03/29 01:43:48;;;;;;;1.30;0.70;;;;;;;;;;5041526;28;20033;-73
2023/03/29 01:46:21;;;;;;;0.68;0.50;;;;;;;;;;5042770;28;20037;-74
2023/03/29 01:49:00;;;;;;;1.08;0.60;;;;;;;;;;5040969;28;20079;-75
2023/03/29 01:51:26;;;;;;;2.35;0.70;;;;;;;;;;5039932;28;20055;-75
2023/03/29 01:53:56;;;;;;;1.63;0.82;;;;;;;;;;5036467;28;20146;-73
2023/03/29 01:56:26;;;;;;;2.58;0.73;;;;;;;;;;5046385;28;20025;-73
2023/03/29 01:58:55;;;;;;;1.73;0.80;;;;;;;;;;5044067;28;20040;-74
2023/03/29 02:01:24;;;;;;;2.40;0.70;;;;;;;;;;5046770;28;20017;-73
2023/03/29 02:03:53;;;;;;;5.18;0.95;;;;;;;;;;5041573;28;20025;-73
2023/03/29 02:06:22;;;;;;;1.48;0.60;;;;;;;;;;5042327;28;20029;-74
2023/03/29 02:08:49;;;;;;;1.48;0.75;;;;;;;;;;5044097;28;20028;-73
2023/03/29 02:11:15;;;;;;;3.63;0.77;;;;;;;;;;5049166;28;20746;-74
2023/03/29 02:13:41;;;;;;;2.55;0.60;;;;;;;;;;5046593;28;20032;-74
2023/03/29 02:16:12;;;;;;;2.15;0.82;;;;;;;;;;5043290;28;20057;-73
2023/03/29 02:18:42;;;;;;;1.75;0.57;;;;;;;;;;5025486;28;20022;-74
2023/03/29 02:21:09;;;;;;;0.98;0.50;;;;;;;;;;5026514;28;20037;-74
2023/03/29 02:23:46;;;;;;;1.52;0.70;;;;;;;;;;5030332;28;20829;-74
2023/03/29 02:26:13;;;;;;;1.17;0.70;;;;;;;;;;5033455;28;20055;-73
2023/03/29 02:28:40;;;;;;;2.60;0.55;;;;;;;;;;5028134;28;20094;-74
2023/03/29 02:31:17;;;;;;;0.65;0.55;;;;;;;;;;5022601;28;20132;-74
2023/03/29 02:33:52;;;;;;;2.85;0.70;;;;;;;;;;5029767;28;20041;-74
2023/03/29 02:36:22;;;;;;;1.30;0.55;;;;;;;;;;5022811;28;20144;-75
2023/03/29 02:38:48;;;;;;;1.48;0.85;;;;;;;;;;5026895;28;20033;-74
2023/03/29 02:41:16;;;;;;;3.05;0.98;;;;;;;;;;5032935;28;20038;-74
2023/03/29 02:43:45;;;;;;;1.58;0.60;;;;;;;;;;5031476;28;20029;-74
2023/03/29 02:46:12;;;;;;;0.95;0.52;;;;;;;;;;5027855;28;20033;-74
2023/03/29 02:48:39;;;;;;;0.95;0.80;;;;;;;;;;5026821;28;20022;-74
2023/03/29 02:51:08;;;;;;;2.08;0.70;;;;;;;;;;5027715;28;20081;-74
2023/03/29 02:53:40;;;;;;;4.07;0.95;;;;;;;;;;5033950;28;20029;-75
2023/03/29 02:56:06;;;;;;;2.13;0.77;;;;;;;;;;5028168;28;20489;-74
2023/03/29 02:58:35;;;;;;;2.13;0.77;;;;;;;;;;5028270;28;20026;-75
2023/03/29 03:01:02;;;;;;;1.55;0.77;;;;;;;;;;5025681;28;20053;-74
2023/03/29 03:03:28;;;;;;;0.80;0.65;;;;;;;;;;5034486;28;20049;-75
2023/03/29 03:05:54;;;;;;;2.05;0.60;;;;;;;;;;5023374;28;20297;-75
2023/03/29 03:08:20;;;;;;;1.45;0.52;;;;;;;;;;5033485;28;20060;-74
2023/03/29 03:10:47;;;;;;;2.53;0.65;;;;;;;;;;5023366;28;20036;-74
2023/03/29 03:13:13;;;;;;;3.05;0.73;;;;;;;;;;5021916;28;20037;-75
2023/03/29 03:15:41;;;;;;;1.45;0.60;;;;;;;;;;5025330;28;20489;-74
2023/03/29 03:18:08;;;;;;;1.67;0.85;;;;;;;;;;5036705;28;20049;-74
2023/03/29 03:20:34;;;;;;;3.20;0.65;;;;;;;;;;5048573;28;20027;-74
2023/03/29 03:23:04;;;;;;;1.08;0.57;;;;;;;;;;5044158;28;20033;-74
2023/03/29 03:25:31;;;;;;;2.08;0.88;;;;;;;;;;5039992;28;20121;-74
2023/03/29 03:27:57;;;;;;;2.55;0.90;;;;;;;;;;5041471;28;20064;-74
2023/03/29 03:30:24;;;;;;;1.30;0.60;;;;;;;;;;5045505;28;20028;-74
2023/03/29 03:32:50;;;;;;;2.42;0.90;;;;;;;;;;5039304;28;20067;-74
2023/03/29 03:35:16;;;;;;;2.55;0.70;;;;;;;;;;5037664;28;20043;-74
2023/03/29 03:37:43;;;;;;;1.27;0.70;;;;;;;;;;5042373;28;20028;-73
2023/03/29 03:40:10;;;;;;;3.90;0.80;;;;;;;;;;5037863;28;20029;-74
2023/03/29 03:42:37;;;;;;;1.27;0.55;;;;;;;;;;5040575;28;20472;-73
2023/03/29 03:45:04;;;;;;;3.28;0.70;;;;;;;;;;5038901;28;20037;-73
2023/03/29 03:47:30;;;;;;;2.42;0.55;;;;;;;;;;5038115;28;20037;-74
2023/03/29 03:49:57;;;;;;;1.58;0.70;;;;;;;;;;5040514;28;20756;-74
2023/03/29 03:52:23;;;;;;;3.63;0.90;;;;;;;;;;5039673;28;20061;-72
2023/03/29 03:54:49;;;;;;;2.70;0.60;;;;;;;;;;5036682;28;20040;-73
2023/03/29 03:57:16;;;;;;;2.75;1.13;;;;;;;;;;5041751;28;20017;-74
2023/03/29 03:59:42;;;;;;;2.83;0.90;;;;;;;;;;5041786;28;20040;-74
2023/03/29 04:02:09;;;;;;;1.77;0.55;;;;;;;;;;5046837;28;20021;-74
2023/03/29 04:04:35;;;;;;;1.92;0.45;;;;;;;;;;5040146;28;20021;-73
2023/03/29 04:07:01;;;;;;;1.27;0.60;;;;;;;;;;5043536;28;20041;-74
2023/03/29 04:09:32;;;;;;;1.17;0.60;;;;;;;;;;5040282;28;20474;-73
2023/03/29 04:11:59;;;;;;;1.67;0.80;;;;;;;;;;5041590;28;20028;-74
2023/03/29 04:14:25;;;;;;;1.20;0.70;;;;;;;;;;5040697;28;20033;-73
2023/03/29 04:16:52;;;;;;;4.13;0.82;;;;;;;;;;5043473;28;20062;-73
2023/03/29 04:19:19;;;;;;;1.77;0.55;;;;;;;;;;5034903;28;20087;-74
2023/03/29 04:21:46;;;;;;;2.70;0.90;;;;;;;;;;5045049;28;20032;-73
2023/03/29 04:24:12;;;;;;;12.52;1.13;;;;;;;;;;5036739;28;20120;-73
2023/03/29 04:26:40;;;;;;;2.95;0.70;;;;;;;;;;5037541;28;21104;-73
2023/03/29 04:29:06;;;;;;;1.35;0.85;;;;;;;;;;5041710;28;20033;-73
2023/03/29 04:31:33;;;;;;;1.27;0.65;;;;;;;;;;5039253;28;20025;-74
2023/03/29 04:33:59;;;;;;;1.15;0.63;;;;;;;;;;5036584;28;20071;-73
2023/03/29 04:36:25;;;;;;;1.45;0.95;;;;;;;;;;5038042;28;20028;-74
2023/03/29 04:38:51;;;;;;;3.47;0.77;;;;;;;;;;5041035;28;20033;-74
2023/03/29 04:41:18;;;;;;;2.65;1.23;;;;;;;;;;5040459;28;20025;-73
2023/03/29 04:43:48;;;;;;;1.85;0.90;;;;;;;;;;5045379;28;20645;-74
2023/03/29 04:46:15;;;;;;;1.83;0.95;;;;;;;;;;5039309;28;20456;-73
2023/03/29 04:48:41;;;;;;;2.30;0.70;;;;;;;;;;5040269;28;20021;-73
2023/03/29 04:51:07;;;;;;;1.13;0.63;;;;;;;;;;5036901;28;20044;-73
2023/03/29 04:53:34;;;;;;;2.40;0.75;;;;;;;;;;5036144;28;20732;-73
2023/03/29 04:56:00;;;;;;;0.70;0.50;;;;;;;;;;5031185;28;20046;-74
2023/03/29 04:58:26;;;;;;;2.03;0.50;;;;;;;;;;5036606;28;20467;-73
2023/03/29 05:00:58;;;;;;;4.15;1.60;;;;;;;;;;5037455;28;20764;-73
2023/03/29 05:03:25;;;;;;;5.95;1.60;;;;;;;;;;5040475;28;20067;-73
2023/03/29 05:05:52;;;;;;;3.22;1.52;;;;;;;;;;5040126;28;20027;-74
2023/03/29 05:08:18;;;;;;;4.10;1.90;;;;;;;;;;5036967;28;20043;-73
2023/03/29 05:10:45;;;;;;;3.47;1.75;;;;;;;;;;5040594;28;20040;-73
2023/03/29 05:13:11;;;;;;;16.10;2.08;;;;;;;;;;5030708;28;20037;-73
2023/03/29 05:15:37;;;;;;;4.55;1.63;;;;;;;;;;5038324;28;20497;-73
2023/03/29 05:18:03;;;;;;;2.95;1.58;;;;;;;;;;5037813;28;20048;-73
2023/03/29 05:20:30;;;;;;;4.53;1.70;;;;;;;;;;5039199;28;20021;-71
2023/03/29 05:22:56;;;;;;;10.80;2.05;;;;;;;;;;5043719;28;20017;-73
2023/03/29 05:25:22;;;;;;;32.30;4.78;;;;;;;;;;5041610;28;20033;-73
2023/03/29 05:27:48;;;;;;;4.18;1.85;;;;;;;;;;5036107;28;20543;-75
2023/03/29 05:30:15;;;;;;;6.40;1.95;;;;;;;;;;5044858;28;20398;-73
2023/03/29 05:32:41;;;;;;;4.90;1.80;;;;;;;;;;5044932;28;20017;-75
2023/03/29 05:35:08;;;;;;;4.32;2.08;;;;;;;;;;5049556;28;20031;-74
2023/03/29 05:37:34;;;;;;;3.00;1.90;;;;;;;;;;5049361;28;20036;-74
2023/03/29 05:40:00;;;;;;;3.00;1.73;;;;;;;;;;5044309;28;20032;-73
2023/03/29 05:42:27;;;;;;;9.15;2.40;;;;;;;;;;5042773;28;20029;-74
2023/03/29 05:44:53;;;;;;;8.68;2.35;;;;;;;;;;5045347;28;20556;-75
2023/03/29 05:47:20;;;;;;;4.57;2.08;;;;;;;;;;5046435;28;20028;-74
2023/03/29 05:49:46;;;;;;;12.25;2.10;;;;;;;;;;5039603;28;20044;-75
2023/03/29 05:52:13;;;;;;;3.00;2.00;;;;;;;;;;5044954;28;20013;-74
2023/03/29 05:54:40;;;;;;;3.55;2.20;;;;;;;;;;5046719;28;20070;-76
2023/03/29 05:57:07;;;;;;;4.18;1.42;;;;;;;;;;5044194;28;20036;-76
2023/03/29 05:59:33;;;;;;;4.20;1.50;;;;;;;;;;5056687;28;20017;-76
2023/03/29 06:02:02;;;;;;;6.10;1.58;;;;;;;;;;5047864;28;20025;-75
2023/03/29 06:04:28;;;;;;;4.22;1.67;;;;;;;;;;5054306;28;20021;-75
2023/03/29 06:06:55;;;;;;;4.55;1.80;;;;;;;;;;5049049;28;20025;-77
2023/03/29 06:09:21;;;;;;;1.98;1.50;;;;;;;;;;5038657;28;20182;-76
2023/03/29 06:11:47;;;;;;;4.35;1.38;;;;;;;;;;5045013;28;20447;-75
2023/03/29 06:14:14;;;;;;;2.28;1.35;;;;;;;;;;5043282;28;20033;-79
2023/03/29 06:16:42;;;;;;;5.50;1.60;;;;;;;;;;5045963;28;20064;-79
2023/03/29 06:19:08;;;;;;;5.53;1.55;;;;;;;;;;5047451;28;20095;-75
2023/03/29 06:21:34;;;;;;;8.55;2.10;;;;;;;;;;5039771;28;20028;-77
2023/03/29 06:24:00;;;;;;;4.78;2.00;;;;;;;;;;5045161;28;20025;-78
2023/03/29 06:26:26;;;;;;;2.65;1.63;;;;;;;;;;5045642;28;20035;-77
2023/03/29 06:28:53;;;;;;;4.45;1.67;;;;;;;;;;5039810;28;20025;-78
2023/03/29 06:31:19;;;;;;;6.97;1.77;;;;;;;;;;5040392;28;20018;-78
2023/03/29 06:33:46;;;;;;;6.47;2.08;;;;;;;;;;5044268;28;20025;-76
2023/03/29 06:36:14;;;;;;;12.38;2.20;;;;;;;;;;5043895;28;20036;-74
2023/03/29 06:38:41;;;;;;;4.60;1.70;;;;;;;;;;5049206;28;20028;-74
2023/03/29 06:41:09;;;;;;;3.90;1.50;;;;;;;;;;5045859;28;20536;-75
2023/03/29 06:43:36;;;;;;;2.95;1.40;;;;;;;;;;5039875;28;20025;-73
2023/03/29 06:46:03;;;;;;;2.13;1.50;;;;;;;;;;5039372;28;20024;-74
2023/03/29 06:48:29;;;;;;;3.63;1.40;;;;;;;;;;5041496;28;20401;-74
2023/03/29 06:50:55;;;;;;;3.20;1.30;;;;;;;;;;5040905;28;20116;-74
2023/03/29 06:53:22;;;;;;;4.70;1.63;;;;;;;;;;5046595;28;20443;-74
2023/03/29 06:55:50;;;;;;;6.70;1.52;;;;;;;;;;5043479;28;20053;-74
2023/03/29 06:58:16;;;;;;;4.65;1.35;;;;;;;;;;5045186;28;20377;-74
2023/03/29 07:00:42;;;;;;;3.38;2.10;;;;;;;;;;5043322;28;20024;-74
2023/03/29 07:03:12;;;;;;;4.82;1.30;;;;;;;;;;5042525;28;20025;-74
2023/03/29 07:05:41;;;;;;;3.17;0.85;;;;;;;;;;5042848;28;20631;-74
2023/03/29 07:10:38;;;;;;;4.80;1.00;;;;;;;;;;5042764;28;20104;-74
2023/03/29 07:13:11;;;;;;;3.38;1.13;;;;;;;;;;5045805;28;20639;-74
2023/03/29 07:15:37;;;;;;;1.55;0.95;;;;;;;;;;5039151;28;20073;-74
2023/03/29 07:18:04;;;;;;;2.35;0.88;;;;;;;;;;5043538;28;20017;-74
2023/03/29 07:20:30;;;;;;;3.17;1.35;;;;;;;;;;5040089;28;20543;-74
2023/03/29 07:22:57;;;;;;;2.75;1.20;;;;;;;;;;5044662;28;20020;-75
2023/03/29 07:25:24;;;;;;;2.65;1.20;;;;;;;;;;5043322;28;20074;-75
2023/03/29 07:27:53;;;;;;;2.33;1.08;;;;;;;;;;5046517;28;20025;-74
2023/03/29 07:30:21;;;;;;;5.68;1.10;;;;;;;;;;5041793;28;20370;-74
2023/03/29 07:32:49;;;;;;;1.42;0.93;;;;;;;;;;5043993;28;20096;-74
2023/03/29 07:35:17;;;;;;;10.32;1.90;;;;;;;;;;5043766;28;20527;-73
2023/03/29 07:37:44;;;;;;;4.63;1.17;;;;;;;;;;5047428;28;20025;-73
2023/03/29 07:40:18;;;;;;;8.38;1.50;;;;;;;;;;5043003;28;20029;-74
2023/03/29 07:42:48;;;;;;;3.45;1.42;;;;;;;;;;5040792;28;20597;-74
2023/03/29 07:45:15;;;;;;;2.72;1.33;;;;;;;;;;5043201;28;20027;-74
2023/03/29 07:47:42;;;;;;;2.88;1.05;;;;;;;;;;5039478;28;20021;-74
2023/03/29 07:50:08;;;;;;;4.93;1.83;;;;;;;;;;5042203;28;20037;-75
2023/03/29 07:52:37;;;;;;;3.97;1.10;;;;;;;;;;5043657;28;20029;-75
2023/03/29 07:55:03;;;;;;;7.68;2.28;;;;;;;;;;5045282;28;20037;-75
2023/03/29 07:57:29;;;;;;;5.70;1.40;;;;;;;;;;5037830;28;20025;-75
2023/03/29 07:59:56;;;;;;;7.68;1.42;;;;;;;;;;5040930;28;20037;-76
2023/03/29 08:02:23;;;;;;;9.30;1.30;;;;;;;;;;5041166;28;20021;-74
2023/03/29 08:04:49;;;;;;;3.40;1.10;;;;;;;;;;5040307;28;20047;-73
2023/03/29 08:07:18;;;;;;;4.85;1.63;;;;;;;;;;5039395;28;20028;-72
2023/03/29 08:09:45;;;;;;;3.60;1.33;;;;;;;;;;5044114;28;20107;-73
2023/03/29 08:12:11;;;;;;;6.43;1.00;;;;;;;;;;5038277;28;20021;-73
2023/03/29 08:14:37;;;;;;;4.82;1.33;;;;;;;;;;5042240;28;20048;-73
2023/03/29 08:17:04;;;;;;;8.95;1.90;;;;;;;;;;5038176;28;20045;-74
2023/03/29 08:19:31;;;;;;;11.10;1.85;;;;;;;;;;5039678;28;20535;-74
2023/03/29 08:21:57;;;;;;;6.28;1.88;;;;;;;;;;5038606;28;20390;-73
2023/03/29 08:24:24;;;;;;;2.90;1.40;;;;;;;;;;5042217;28;20021;-74
2023/03/29 08:26:50;;;;;;;3.47;1.42;;;;;;;;;;5036488;28;20018;-72
2023/03/29 08:29:16;;;;;;;4.05;1.30;;;;;;;;;;5042292;28;20037;-72
2023/03/29 08:31:42;;;;;;;6.70;1.35;;;;;;;;;;5039427;28;20484;-70
2023/03/29 08:34:08;;;;;;;7.20;1.75;;;;;;;;;;5041389;28;20041;-71
2023/03/29 08:36:35;;;;;;;7.72;1.63;;;;;;;;;;5041394;28;20021;-72
2023/03/29 08:39:02;;;;;;;7.65;1.50;;;;;;;;;;5041126;28;20077;-73
2023/03/29 08:41:46;;;;;;;9.95;2.03;;;;;;;;;;5041122;28;20021;-70
2023/03/29 08:44:33;;;;;;;4.18;1.40;;;;;;;;;;5038722;28;20031;-73
2023/03/29 08:47:07;;;;;;;12.70;2.75;;;;;;;;;;5035834;28;20051;-71
2023/03/29 08:49:35;;;;;;;2.83;1.30;;;;;;;;;;5041799;28;20029;-71
2023/03/29 08:52:05;;;;;;;6.15;1.60;;;;;;;;;;5039229;28;20104;-71
2023/03/29 08:54:41;;;;;;;18.98;1.60;;;;;;;;;;5042388;28;20041;-70
2023/03/29 08:57:11;;;;;;;7.75;1.80;;;;;;;;;;5043457;28;20461;-71
2023/03/29 08:59:39;;;;;;;5.78;1.80;;;;;;;;;;5043474;28;20376;-70
2023/03/29 09:02:13;;;;;;;6.97;1.65;;;;;;;;;;5038765;28;20035;-72
2023/03/29 09:04:41;;;;;;;4.20;1.50;;;;;;;;;;5039333;28;20047;-73
2023/03/29 09:07:10;;;;;;;4.60;1.25;;;;;;;;;;5041513;28;20036;-72
2023/03/29 09:09:37;;;;;;;6.05;1.70;;;;;;;;;;5041428;28;20073;-72
2023/03/29 09:12:23;;;;;;;1.65;1.13;;;;;;;;;;5041257;28;20025;-71
2023/03/29 09:14:52;;;;;;;5.07;1.67;;;;;;;;;;5040572;28;20470;-72
2023/03/29 09:17:26;;;;;;;3.10;1.48;;;;;;;;;;5038797;28;20441;-72
2023/03/29 09:20:11;;;;;;;4.50;1.50;;;;;;;;;;5041774;28;20667;-72
2023/03/29 09:22:38;;;;;;;4.60;1.70;;;;;;;;;;5042772;28;20025;-71
2023/03/29 09:25:08;;;;;;;3.58;1.52;;;;;;;;;;5041557;28;20029;-72
2023/03/29 09:27:40;;;;;;;4.72;1.70;;;;;;;;;;5040118;28;20024;-71
2023/03/29 09:30:12;;;;;;;8.02;1.92;;;;;;;;;;5040669;28;20075;-71
2023/03/29 09:32:38;;;;;;;4.15;1.30;;;;;;;;;;5037774;28;20024;-71
2023/03/29 09:35:17;;;;;;;2.90;1.30;;;;;;;;;;5040846;28;20461;-71
2023/03/29 09:37:44;;;;;;;355.58;29.05;;;;;;;;;;5041680;28;20017;-72
2023/03/29 09:40:12;;;;;;;18.23;2.88;;;;;;;;;;5039834;28;20025;-77
2023/03/29 09:42:39;;;;;;;4.85;1.50;;;;;;;;;;5040748;28;20377;-74
2023/03/29 09:45:09;;;;;;;1.90;1.10;;;;;;;;;;5036152;28;20040;-73
2023/03/29 09:47:41;;;;;;;1.95;1.08;;;;;;;;;;5043742;28;20024;-73
2023/03/29 09:50:14;;;;;;;24.95;2.90;;;;;;;;;;5041890;28;20052;-75
2023/03/29 09:52:40;;;;;;;3.75;1.60;;;;;;;;;;5042871;28;20020;-73
2023/03/29 09:55:06;;;;;;;5.45;1.63;;;;;;;;;;5042235;28;20044;-77
2023/03/29 09:57:35;;;;;;;4.45;1.42;;;;;;;;;;5038852;28;20024;-81
2023/03/29 10:00:04;;;;;;;18.98;3.15;;;;;;;;;;5043536;28;20441;-77
2023/03/29 10:02:31;;;;;;;5.57;1.88;;;;;;;;;;5039156;28;20466;-78
2023/03/29 10:05:04;;;;;;;5.80;1.42;;;;;;;;;;5042030;28;20482;-78
2023/03/29 10:07:38;;;;;;;2.55;1.17;;;;;;;;;;5040805;28;20087;-78
2023/03/29 10:10:07;;;;;;;1.77;1.13;;;;;;;;;;5037735;28;20044;-78
2023/03/29 10:12:33;;;;;;;3.72;1.42;;;;;;;;;;5040182;28;20083;-78
2023/03/29 10:15:00;;;;;;;3.42;1.67;;;;;;;;;;5040719;28;20397;-78
2023/03/29 10:17:31;;;;;;;4.30;1.63;;;;;;;;;;5041543;28;20041;-79
2023/03/29 10:19:59;;;;;;;4.10;1.30;;;;;;;;;;5042034;28;20032;-77
2023/03/29 10:22:26;;;;;;;2.75;1.30;;;;;;;;;;5045404;28;20068;-79
2023/03/29 10:24:54;;;;;;;5.00;1.60;;;;;;;;;;5044284;28;20029;-79
2023/03/29 10:27:22;;;;;;;5.57;2.53;;;;;;;;;;5043624;28;20130;-78
2023/03/29 10:29:49;;;;;;;4.22;1.70;;;;;;;;;;5037014;28;20485;-78
2023/03/29 10:32:17;;;;;;;3.28;1.73;;;;;;;;;;5038979;28;20021;-79
2023/03/29 10:34:45;;;;;;;4.85;1.92;;;;;;;;;;5049428;28;20040;-77
2023/03/29 10:37:13;;;;;;;5.13;1.90;;;;;;;;;;5053179;28;20882;-77
2023/03/29 10:39:40;;;;;;;4.10;1.50;;;;;;;;;;5038853;28;20049;-79
2023/03/29 10:42:07;;;;;;;4.47;1.80;;;;;;;;;;5043414;28;20033;-77
2023/03/29 10:44:36;;;;;;;5.22;1.80;;;;;;;;;;5042792;28;20614;-76
2023/03/29 10:47:28;;;;;;;3.38;1.50;;;;;;;;;;5048003;28;20032;-73
2023/03/29 10:49:57;;;;;;;2.83;1.50;;;;;;;;;;5045695;28;20052;-75
2023/03/29 10:52:24;;;;;;;2.58;1.60;;;;;;;;;;5039330;28;20024;-77
2023/03/29 10:54:52;;;;;;;6.18;1.50;;;;;;;;;;5042776;28;20025;-78
2023/03/29 10:57:40;;;;;;;5.15;1.65;;;;;;;;;;5037666;28;20032;-78
2023/03/29 11:00:06;;;;;;;7.85;1.90;;;;;;;;;;5042955;28;20028;-78
2023/03/29 11:02:33;;;;;;;3.05;1.42;;;;;;;;;;5043363;28;20021;-77
2023/03/29 11:05:04;;;;;;;4.45;1.80;;;;;;;;;;5044466;28;20029;-79
2023/03/29 11:07:49;;;;;;;2.35;1.30;;;;;;;;;;5037841;28;20087;-78
2023/03/29 11:10:33;;;;;;;4.28;1.30;;;;;;;;;;5039927;28;20081;-77
2023/03/29 11:13:15;;;;;;;9.65;3.03;;;;;;;;;;5041262;28;20094;-77
2023/03/29 11:15:47;;;;;;;4.35;1.58;;;;;;;;;;5034022;28;20052;-77
2023/03/29 11:18:16;;;;;;;4.85;1.50;;;;;;;;;;5046592;28;20393;-77
2023/03/29 11:21:02;;;;;;;3.67;1.95;;;;;;;;;;5041193;28;20082;-78
2023/03/29 11:23:34;;;;;;;3.95;1.80;;;;;;;;;;5036880;28;20029;-79
2023/03/29 11:26:21;;;;;;;6.55;1.70;;;;;;;;;;5037508;28;20083;-78
2023/03/29 11:28:51;;;;;;;6.13;2.05;;;;;;;;;;5037467;28;20013;-79
2023/03/29 11:31:30;;;;;;;3.78;1.80;;;;;;;;;;5039340;28;20021;-79
2023/03/29 11:34:07;;;;;;;5.78;1.80;;;;;;;;;;5039717;28;20034;-76
2023/03/29 11:36:39;;;;;;;9.77;1.90;;;;;;;;;;5041131;28;20342;-75
2023/03/29 11:39:17;;;;;;;8.00;1.92;;;;;;;;;;5038084;28;20513;-75
2023/03/29 11:41:46;;;;;;;4.22;1.58;;;;;;;;;;5037799;28;20040;-75
2023/03/29 11:44:31;;;;;;;2.20;1.42;;;;;;;;;;5039533;28;20848;-73
2023/03/29 11:47:00;;;;;;;2.65;1.70;;;;;;;;;;5036189;28;20759;-78
2023/03/29 11:49:36;;;;;;;7.80;2.40;;;;;;;;;;5040022;28;20159;-75
2023/03/29 11:52:09;;;;;;;6.45;2.17;;;;;;;;;;5032873;28;20060;-79
2023/03/29 11:54:48;;;;;;;7.43;1.80;;;;;;;;;;5040763;28;20037;-75
2023/03/29 11:57:28;;;;;;;4.00;1.60;;;;;;;;;;5037358;28;20033;-78
2023/03/29 12:00:12;;;;;;;4.38;2.20;;;;;;;;;;5045768;28;20028;-78
2023/03/29 12:02:44;;;;;;;4.82;1.80;;;;;;;;;;5037811;28;20033;-78
2023/03/29 12:05:27;;;;;;;3.17;1.50;;;;;;;;;;5035107;28;20843;-78
2023/03/29 12:07:56;;;;;;;2.90;1.40;;;;;;;;;;5037227;28;20029;-79
2023/03/29 12:10:23;;;;;;;3.50;1.77;;;;;;;;;;5039367;28;20030;-78
2023/03/29 12:12:57;;;;;;;2.75;1.75;;;;;;;;;;5042520;28;20044;-78
2023/03/29 12:15:24;;;;;;;3.05;1.50;;;;;;;;;;5038082;28;20037;-77
2023/03/29 12:17:58;;;;;;;7.90;2.28;;;;;;;;;;5039874;28;20790;-79
2023/03/29 12:20:28;;;;;;;5.90;1.45;;;;;;;;;;5036857;28;20029;-77
2023/03/29 12:22:54;;;;;;;3.00;1.67;;;;;;;;;;5046165;28;20021;-77
2023/03/29 12:25:24;;;;;;;4.03;1.60;;;;;;;;;;5040097;28;20108;-78
2023/03/29 12:27:59;;;;;;;3.60;1.67;;;;;;;;;;5039906;28;20029;-78
2023/03/29 12:30:26;;;;;;;5.30;1.45;;;;;;;;;;5034068;28;20025;-78
2023/03/29 12:32:55;;;;;;;4.63;1.67;;;;;;;;;;5034443;28;20024;-77
2023/03/29 12:35:36;;;;;;;4.25;1.90;;;;;;;;;;5038778;28;20040;-78
2023/03/29 12:38:22;;;;;;;5.43;1.50;;;;;;;;;;5039846;28;20024;-79
2023/03/29 12:40:54;;;;;;;3.15;1.42;;;;;;;;;;5039126;28;20041;-79
2023/03/29 12:43:23;;;;;;;4.40;1.60;;;;;;;;;;5041185;28;20484;-78
2023/03/29 12:45:52;;;;;;;3.38;1.85;;;;;;;;;;5037551;28;20421;-78
2023/03/29 12:48:20;;;;;;;4.60;1.98;;;;;;;;;;5038878;28;20035;-78
2023/03/29 12:50:53;;;;;;;2.38;1.50;;;;;;;;;;5039897;28;20151;-78
2023/03/29 12:53:34;;;;;;;4.75;1.60;;;;;;;;;;5040226;28;20032;-77
2023/03/29 12:56:00;;;;;;;4.10;1.60;;;;;;;;;;5035238;28;20032;-77
2023/03/29 12:58:38;;;;;;;4.22;2.25;;;;;;;;;;5044955;28;20115;-78
2023/03/29 13:01:26;;;;;;;5.50;1.70;;;;;;;;;;5038426;28;20033;-77
2023/03/29 13:04:02;;;;;;;4.32;1.40;;;;;;;;;;5039313;28;20528;-79
2023/03/29 13:06:52;;;;;;;4.38;1.30;;;;;;;;;;5035773;28;20021;-78
2023/03/29 13:09:20;;;;;;;3.08;1.85;;;;;;;;;;5033404;28;20056;-78
2023/03/29 13:11:54;;;;;;;4.55;1.83;;;;;;;;;;5032161;28;20021;-79
2023/03/29 13:14:23;;;;;;;2.53;1.90;;;;;;;;;;5038322;28;20032;-78
2023/03/29 13:16:49;;;;;;;2.38;1.65;;;;;;;;;;5038844;28;20049;-79
2023/03/29 13:19:34;;;;;;;4.05;1.80;;;;;;;;;;5041954;28;20037;-79
2023/03/29 13:22:19;;;;;;;3.03;1.70;;;;;;;;;;5029673;28;20100;-78
2023/03/29 13:24:48;;;;;;;2.85;1.40;;;;;;;;;;5039939;28;20029;-78
2023/03/29 13:27:15;;;;;;;4.88;1.55;;;;;;;;;;5034549;28;20517;-78
2023/03/29 13:29:53;;;;;;;5.20;1.70;;;;;;;;;;5032381;28;20040;-78
2023/03/29 13:32:38;;;;;;;3.33;1.67;;;;;;;;;;5034546;28;20021;-78
2023/03/29 13:35:17;;;;;;;5.43;1.48;;;;;;;;;;5030030;28;20120;-78
2023/03/29 13:37:47;;;;;;;2.47;1.27;;;;;;;;;;5034546;28;20025;-77
2023/03/29 13:40:42;;;;;;;10.25;1.90;;;;;;;;;;5037574;28;20171;-77
2023/03/29 13:43:09;;;;;;;5.25;1.58;;;;;;;;;;5018554;28;20033;-77
2023/03/29 13:45:37;;;;;;;3.67;1.00;;;;;;;;;;5040029;28;20109;-78
2023/03/29 13:48:05;;;;;;;3.65;1.40;;;;;;;;;;5038954;28;20048;-77
2023/03/29 13:50:39;;;;;;;3.38;1.52;;;;;;;;;;5040458;28;20021;-77
2023/03/29 13:53:19;;;;;;;3.50;1.52;;;;;;;;;;5042224;28;20021;-77
2023/03/29 13:55:48;;;;;;;15.13;1.85;;;;;;;;;;5041013;28;20127;-78
2023/03/29 13:58:24;;;;;;;3.72;1.33;;;;;;;;;;5045222;28;20021;-77
2023/03/29 14:00:55;;;;;;;2.53;1.30;;;;;;;;;;5037102;28;20045;-77
2023/03/29 14:03:28;;;;;;;4.65;1.52;;;;;;;;;;5039556;28;20477;-78
2023/03/29 14:06:00;;;;;;;3.10;1.42;;;;;;;;;;5040192;28;20033;-78
2023/03/29 14:08:30;;;;;;;5.32;1.63;;;;;;;;;;5035820;28;20028;-78
2023/03/29 14:11:01;;;;;;;2.55;1.60;;;;;;;;;;5043661;28;20036;-78
2023/03/29 14:13:28;;;;;;;3.17;1.27;;;;;;;;;;5048441;28;20032;-78
2023/03/29 14:15:57;;;;;;;2.22;1.60;;;;;;;;;;5037586;28;20057;-78
2023/03/29 14:18:25;;;;;;;6.18;1.45;;;;;;;;;;5047571;28;20086;-78
2023/03/29 14:20:53;;;;;;;2.75;1.60;;;;;;;;;;5042044;28;20055;-78
2023/03/29 14:23:21;;;;;;;2.15;1.10;;;;;;;;;;5037564;28;20558;-79
2023/03/29 14:25:47;;;;;;;2.88;1.08;;;;;;;;;;5040191;28;20033;-78
2023/03/29 14:28:24;;;;;;;4.30;2.10;;;;;;;;;;5041069;28;20027;-77
2023/03/29 14:30:51;;;;;;;3.40;1.27;;;;;;;;;;5046940;28;20032;-77
2023/03/29 14:33:32;;;;;;;5.07;1.77;;;;;;;;;;5043899;28;20019;-77
2023/03/29 14:36:01;;;;;;;6.28;1.90;;;;;;;;;;5044505;28;20033;-76
2023/03/29 14:38:27;;;;;;;2.40;1.60;;;;;;;;;;5052085;28;20025;-76
2023/03/29 14:40:58;;;;;;;3.78;1.42;;;;;;;;;;5044064;28;20013;-76
2023/03/29 14:43:29;;;;;;;5.05;1.52;;;;;;;;;;5044412;28;20112;-77
2023/03/29 14:45:55;;;;;;;3.75;1.40;;;;;;;;;;5042173;28;20621;-77
2023/03/29 14:48:22;;;;;;;3.90;1.55;;;;;;;;;;5048730;28;20020;-76
2023/03/29 14:50:49;;;;;;;2.47;1.30;;;;;;;;;;5037704;28;20025;-76
2023/03/29 14:53:19;;;;;;;4.82;2.20;;;;;;;;;;5045026;28;20029;-77
2023/03/29 14:55:49;;;;;;;3.22;2.40;;;;;;;;;;5041290;28;20052;-77
2023/03/29 14:58:19;;;;;;;4.13;1.70;;;;;;;;;;5044137;28;20361;-77
2023/03/29 15:00:47;;;;;;;3.25;1.60;;;;;;;;;;5044726;28;20065;-77